createdAt,value
2022-08-20T00:00:22.877Z,12.60
2022-08-20T00:02:52.683Z,12.73
2022-08-20T00:05:24.609Z,10.70
2022-08-20T00:07:52.633Z,11.50
2022-08-20T00:10:20.895Z,18.63
2022-08-20T00:12:50.093Z,13.83
2022-08-20T00:15:21.712Z,13.90
2022-08-20T00:17:50.582Z,14.13
2022-08-20T00:20:19.977Z,16.90
2022-08-20T00:22:48.104Z,14.67
2022-08-20T00:25:16.513Z,15.20
2022-08-20T00:27:44.441Z,15.63
2022-08-20T00:30:14.136Z,14.37
2022-08-20T00:32:48.277Z,15.80
2022-08-20T00:35:16.868Z,14.67
2022-08-20T00:37:44.880Z,13.57
2022-08-20T00:40:22.652Z,14.30
2022-08-20T00:42:55.357Z,15.63
2022-08-20T00:45:22.980Z,15.27
2022-08-20T00:47:51.988Z,13.97
2022-08-20T00:50:24.325Z,16.60
2022-08-20T00:52:53.830Z,15.77
2022-08-20T00:55:29.630Z,15.73
2022-08-20T00:58:03.893Z,15.77
2022-08-20T01:00:34.148Z,16.13
2022-08-20T01:03:03.757Z,16.63
2022-08-20T01:05:31.365Z,17.00
2022-08-20T01:07:59.362Z,17.60
2022-08-20T01:10:30.271Z,18.30
2022-08-20T01:13:00.236Z,19.30
2022-08-20T01:15:31.721Z,24.20
2022-08-20T01:18:02.005Z,20.93
2022-08-20T01:20:34.716Z,19.27
2022-08-20T01:23:26.608Z,21.30
2022-08-20T01:26:00.274Z,20.67
2022-08-20T01:28:33.577Z,20.07
2022-08-20T01:31:01.153Z,24.40
2022-08-20T01:33:28.919Z,25.00
2022-08-20T01:35:56.641Z,26.23
2022-08-20T01:38:24.609Z,26.23
2022-08-20T01:41:08.552Z,25.30
2022-08-20T01:43:37.092Z,28.07
2022-08-20T01:46:06.020Z,24.30
2022-08-20T01:48:33.605Z,27.63
2022-08-20T01:51:07.755Z,26.00
2022-08-20T01:53:38.445Z,38.83
2022-08-20T01:56:10.125Z,27.50
2022-08-20T01:58:41.257Z,29.73
2022-08-20T02:01:09.465Z,26.57
2022-08-20T02:03:40.747Z,28.30
2022-08-20T02:06:11.668Z,25.90
2022-08-20T02:08:39.296Z,29.93
2022-08-20T02:11:08.889Z,32.83
2022-08-20T02:13:36.849Z,27.50
2022-08-20T02:16:05.989Z,29.63
2022-08-20T02:18:33.653Z,31.47
2022-08-20T02:21:01.495Z,40.00
2022-08-20T02:23:29.150Z,36.80
2022-08-20T02:25:56.833Z,33.77
2022-08-20T02:28:25.733Z,37.23
2022-08-20T02:30:55.240Z,33.63
2022-08-20T02:33:24.614Z,33.10
2022-08-20T02:35:53.725Z,31.57
2022-08-20T02:38:21.432Z,39.80
2022-08-20T02:40:49.917Z,32.13
2022-08-20T02:43:20.072Z,35.60
2022-08-20T02:45:49.006Z,38.07
2022-08-20T02:48:22.739Z,35.80
2022-08-20T02:50:53.221Z,34.00
2022-08-20T02:53:21.421Z,43.27
2022-08-20T02:55:48.996Z,40.83
2022-08-20T02:58:16.872Z,43.87
2022-08-20T03:00:44.836Z,48.77
2022-08-20T03:03:14.091Z,58.10
2022-08-20T03:05:43.921Z,45.13
2022-08-20T03:08:13.434Z,48.93
2022-08-20T03:10:42.751Z,44.07
2022-08-20T03:13:12.503Z,57.00
2022-08-20T03:15:43.005Z,46.83
2022-08-20T03:18:11.422Z,53.87
2022-08-20T03:20:42.057Z,53.30
2022-08-20T03:23:09.773Z,58.13
2022-08-20T03:25:37.469Z,41.83
2022-08-20T03:28:05.728Z,52.47
2022-08-20T03:30:33.600Z,41.40
2022-08-20T03:33:01.564Z,37.70
2022-08-20T03:35:32.949Z,38.00
2022-08-20T03:38:02.342Z,36.80
2022-08-20T03:40:32.639Z,38.33
2022-08-20T03:43:01.152Z,33.70
2022-08-20T03:45:29.787Z,36.73
2022-08-20T03:47:58.668Z,30.53
2022-08-20T03:50:29.821Z,32.50
2022-08-20T03:52:59.493Z,29.20
2022-08-20T03:55:30.950Z,37.03
2022-08-20T03:58:02.924Z,29.30
2022-08-20T04:00:34.684Z,30.33
2022-08-20T04:03:02.316Z,33.17
2022-08-20T04:05:32.782Z,29.83
2022-08-20T04:08:03.414Z,27.73
2022-08-20T04:10:32.937Z,28.97
2022-08-20T04:13:00.613Z,29.00
2022-08-20T04:15:29.245Z,32.30
2022-08-20T04:17:56.950Z,35.57
2022-08-20T04:20:26.116Z,31.23
2022-08-20T04:22:59.157Z,39.73
2022-08-20T04:25:28.429Z,39.57
2022-08-20T04:28:00.174Z,37.77
2022-08-20T04:30:30.572Z,35.73
2022-08-20T04:32:59.497Z,28.90
2022-08-20T04:35:27.506Z,31.23
2022-08-20T04:38:06.404Z,31.13
2022-08-20T04:40:52.532Z,30.10
2022-08-20T04:43:23.054Z,35.43
2022-08-20T04:45:51.902Z,29.00
2022-08-20T04:48:20.472Z,31.27
2022-08-20T04:50:48.341Z,31.50
2022-08-20T04:53:22.711Z,33.30
2022-08-20T04:55:54.437Z,31.40
2022-08-20T04:58:27.272Z,26.50
2022-08-20T05:01:01.184Z,23.70
2022-08-20T05:03:29.691Z,31.33
2022-08-20T05:05:57.900Z,25.63
2022-08-20T05:08:26.808Z,23.57
2022-08-20T05:11:06.592Z,23.80
2022-08-20T05:13:45.134Z,22.50
2022-08-20T05:16:15.105Z,27.13
2022-08-20T05:18:43.231Z,24.80
2022-08-20T05:21:10.873Z,20.73
2022-08-20T05:23:43.174Z,20.73
2022-08-20T05:26:11.970Z,21.53
2022-08-20T05:28:57.087Z,21.97
2022-08-20T05:31:32.692Z,21.63
2022-08-20T05:34:01.236Z,22.70
2022-08-20T05:36:28.890Z,16.87
2022-08-20T05:38:56.470Z,14.43
2022-08-20T05:41:29.358Z,16.13
2022-08-20T05:43:59.389Z,13.73
2022-08-20T05:46:28.369Z,12.37
2022-08-20T05:48:56.139Z,13.00
2022-08-20T05:51:27.608Z,11.60
2022-08-20T05:53:55.300Z,11.50
2022-08-20T05:56:27.130Z,9.90
2022-08-20T05:58:54.970Z,9.90
2022-08-20T06:01:22.733Z,10.10
2022-08-20T06:04:09.284Z,10.27
2022-08-20T06:06:45.319Z,8.27
2022-08-20T06:09:15.043Z,8.87
2022-08-20T06:11:42.614Z,11.43
2022-08-20T06:14:10.241Z,10.50
2022-08-20T06:16:37.925Z,8.23
2022-08-20T06:19:11.295Z,7.80
2022-08-20T06:21:39.759Z,7.80
2022-08-20T06:24:07.872Z,7.10
2022-08-20T06:26:36.315Z,5.70
2022-08-20T06:29:05.878Z,5.63
2022-08-20T06:31:34.908Z,9.03
2022-08-20T06:34:02.772Z,5.40
2022-08-20T06:36:31.673Z,6.43
2022-08-20T06:38:59.255Z,6.60
2022-08-20T06:41:36.376Z,7.20
2022-08-20T06:44:05.278Z,5.10
2022-08-20T06:46:33.043Z,5.93
2022-08-20T06:49:00.818Z,5.20
2022-08-20T06:51:29.250Z,5.53
2022-08-20T06:53:58.713Z,4.97
2022-08-20T06:56:26.736Z,4.97
2022-08-20T06:58:54.281Z,4.90
2022-08-20T07:01:21.879Z,5.63
2022-08-20T07:03:55.755Z,5.03
2022-08-20T07:06:25.285Z,4.55
2022-08-20T07:08:53.052Z,4.73
2022-08-20T07:11:27.216Z,5.10
2022-08-20T07:13:56.465Z,5.83
2022-08-20T07:16:24.077Z,5.67
2022-08-20T07:18:51.773Z,5.85
2022-08-20T07:21:19.538Z,5.13
2022-08-20T07:23:49.341Z,6.75
2022-08-20T07:26:17.040Z,6.70
2022-08-20T07:28:46.353Z,7.10
2022-08-20T07:31:31.642Z,6.60
2022-08-20T07:34:02.788Z,7.23
2022-08-20T07:36:31.051Z,5.90
2022-08-20T07:38:59.761Z,6.53
2022-08-20T07:41:34.218Z,5.73
2022-08-20T07:44:03.404Z,7.53
2022-08-20T07:46:31.651Z,7.60
2022-08-20T07:48:59.873Z,6.07
2022-08-20T07:51:28.529Z,9.10
2022-08-20T07:53:58.118Z,7.07
2022-08-20T07:56:26.563Z,5.90
2022-08-20T07:58:59.227Z,5.60
2022-08-20T08:01:31.648Z,4.90
2022-08-20T08:04:00.702Z,5.03
2022-08-20T08:06:31.375Z,4.70
2022-08-20T08:09:03.937Z,5.27
2022-08-20T08:11:34.479Z,5.20
2022-08-20T08:14:03.478Z,5.07
2022-08-20T08:16:32.798Z,5.43
2022-08-20T08:19:01.900Z,4.33
2022-08-20T08:21:30.140Z,5.13
2022-08-20T08:23:58.228Z,3.87
2022-08-20T08:26:26.261Z,7.60
2022-08-20T08:28:53.848Z,5.67
2022-08-20T08:31:21.425Z,6.13
2022-08-20T08:33:50.351Z,3.60
2022-08-20T08:36:18.410Z,5.87
2022-08-20T08:38:47.074Z,4.27
2022-08-20T08:41:18.707Z,8.73
2022-08-20T08:43:48.793Z,3.67
2022-08-20T08:46:22.608Z,4.40
2022-08-20T08:48:55.633Z,9.00
2022-08-20T08:51:29.266Z,7.13
2022-08-20T08:53:59.589Z,4.37
2022-08-20T08:56:30.665Z,3.90
2022-08-20T08:59:02.763Z,8.70
2022-08-20T09:01:54.416Z,5.37
2022-08-20T09:04:23.696Z,4.20
2022-08-20T09:06:53.425Z,6.53
2022-08-20T09:09:25.650Z,3.90
2022-08-20T09:11:56.146Z,6.90
2022-08-20T09:14:25.318Z,5.53
2022-08-20T09:16:53.717Z,4.60
2022-08-20T09:19:22.811Z,5.60
2022-08-20T09:21:50.543Z,7.33
2022-08-20T09:24:18.393Z,9.00
2022-08-20T09:26:46.089Z,4.50
2022-08-20T09:29:13.856Z,6.63
2022-08-20T09:31:42.634Z,3.47
2022-08-20T09:34:10.417Z,4.43
2022-08-20T09:36:39.460Z,5.83
2022-08-20T09:39:07.059Z,2.90
2022-08-20T09:41:34.837Z,3.83
2022-08-20T09:44:02.900Z,6.33
2022-08-20T09:46:30.493Z,24.37
2022-08-20T09:48:58.408Z,5.87
2022-08-20T09:51:26.041Z,3.97
2022-08-20T09:53:55.877Z,6.77
2022-08-20T09:56:25.191Z,6.33
2022-08-20T09:58:56.523Z,5.00
2022-08-20T10:01:26.670Z,7.10
2022-08-20T10:03:54.353Z,4.07
2022-08-20T10:06:22.091Z,6.53
2022-08-20T10:08:50.491Z,3.80
2022-08-20T10:11:19.852Z,4.77
2022-08-20T10:13:48.213Z,12.53
2022-08-20T10:16:15.821Z,8.10
2022-08-20T10:18:43.410Z,6.13
2022-08-20T10:21:12.405Z,4.83
2022-08-20T10:23:40.086Z,4.37
2022-08-20T10:26:08.529Z,3.23
2022-08-20T10:28:37.896Z,2.50
2022-08-20T10:31:07.168Z,3.70
2022-08-20T10:33:35.756Z,5.07
2022-08-20T10:36:07.637Z,7.30
2022-08-20T10:38:35.225Z,3.13
2022-08-20T10:41:02.812Z,3.90
2022-08-20T10:43:30.563Z,4.20
2022-08-20T10:45:59.557Z,3.97
2022-08-20T10:48:27.596Z,4.73
2022-08-20T10:50:55.265Z,6.47
2022-08-20T10:53:22.905Z,4.53
2022-08-20T10:55:50.520Z,3.63
2022-08-20T10:58:18.986Z,3.10
2022-08-20T11:00:50.801Z,4.57
2022-08-20T11:03:20.120Z,4.60
2022-08-20T11:05:47.768Z,6.50
2022-08-20T11:08:15.395Z,5.87
2022-08-20T11:11:01.589Z,4.73
2022-08-20T11:13:29.185Z,4.33
2022-08-20T11:15:56.821Z,4.13
2022-08-20T11:18:25.906Z,4.10
2022-08-20T11:20:53.760Z,8.90
2022-08-20T11:23:21.340Z,6.00
2022-08-20T11:25:49.676Z,3.00
2022-08-20T11:28:17.343Z,4.17
2022-08-20T11:30:59.011Z,3.93
2022-08-20T11:33:28.080Z,10.33
2022-08-20T11:35:55.649Z,5.30
2022-08-20T11:38:23.266Z,4.00
2022-08-20T11:40:50.872Z,4.40
2022-08-20T11:43:18.696Z,4.70
2022-08-20T11:45:48.534Z,3.17
2022-08-20T11:48:16.771Z,6.20
2022-08-20T11:50:46.873Z,5.03
2022-08-20T11:53:14.922Z,6.83
2022-08-20T11:55:43.243Z,3.97
2022-08-20T11:58:11.503Z,4.57
2022-08-20T12:00:39.316Z,4.70
2022-08-20T12:03:10.265Z,6.70
2022-08-20T12:05:39.553Z,2.97
2022-08-20T12:08:09.533Z,3.00
2022-08-20T12:10:37.908Z,4.13
2022-08-20T12:13:06.220Z,3.30
2022-08-20T12:15:33.980Z,2.80
2022-08-20T12:18:02.126Z,5.50
2022-08-20T12:20:29.777Z,4.47
2022-08-20T12:22:58.901Z,4.83
2022-08-20T12:25:28.019Z,3.53
2022-08-20T12:27:55.695Z,3.70
2022-08-20T12:30:25.543Z,7.13
2022-08-20T12:32:53.520Z,6.80
2022-08-20T12:35:21.325Z,4.70
2022-08-20T12:37:48.981Z,5.53
2022-08-20T12:40:30.541Z,3.83
2022-08-20T12:43:01.840Z,7.00
2022-08-20T12:45:29.845Z,5.33
2022-08-20T12:48:03.035Z,4.13
2022-08-20T12:50:31.847Z,3.77
2022-08-20T12:53:00.445Z,3.60
2022-08-20T12:55:28.853Z,3.33
2022-08-20T12:57:59.238Z,6.50
2022-08-20T13:00:30.565Z,4.87
2022-08-20T13:03:01.531Z,4.27
2022-08-20T13:05:30.134Z,2.90
2022-08-20T13:07:58.458Z,7.73
2022-08-20T13:10:29.513Z,3.37
2022-08-20T13:12:57.907Z,2.80
2022-08-20T13:15:26.572Z,4.67
2022-08-20T13:17:57.636Z,3.67
2022-08-20T13:20:34.076Z,5.10
2022-08-20T13:23:02.840Z,6.87
2022-08-20T13:25:30.464Z,3.47
2022-08-20T13:27:59.157Z,3.73
2022-08-20T13:30:27.049Z,6.47
2022-08-20T13:32:56.360Z,4.77
2022-08-20T13:35:24.174Z,5.37
2022-08-20T13:37:51.891Z,6.60
2022-08-20T13:40:20.015Z,4.37
2022-08-20T13:42:47.673Z,3.73
2022-08-20T13:45:15.724Z,3.77
2022-08-20T13:47:44.409Z,3.10
2022-08-20T13:50:16.112Z,4.00
2022-08-20T13:52:44.470Z,7.73
2022-08-20T13:55:16.941Z,5.53
2022-08-20T13:57:45.396Z,6.33
2022-08-20T14:00:16.686Z,8.10
2022-08-20T14:02:45.271Z,5.23
2022-08-20T14:05:18.417Z,3.47
2022-08-20T14:07:48.019Z,4.70
2022-08-20T14:10:18.447Z,5.00
2022-08-20T14:12:48.167Z,3.80
2022-08-20T14:15:15.922Z,5.20
2022-08-20T14:17:50.287Z,5.60
2022-08-20T14:20:22.140Z,4.07
2022-08-20T14:22:49.756Z,5.20
2022-08-20T14:25:19.701Z,3.87
2022-08-20T14:27:47.378Z,6.20
2022-08-20T14:30:22.452Z,3.70
2022-08-20T14:32:50.152Z,5.17
2022-08-20T14:35:19.356Z,4.13
2022-08-20T14:37:49.416Z,4.23
2022-08-20T14:40:18.565Z,3.83
2022-08-20T14:42:51.630Z,3.87
2022-08-20T14:45:23.214Z,4.27
2022-08-20T14:47:54.175Z,4.27
2022-08-20T14:50:26.684Z,3.93
2022-08-20T14:52:54.970Z,5.53
2022-08-20T14:55:24.705Z,4.07
2022-08-20T14:57:52.423Z,3.93
2022-08-20T15:00:23.245Z,3.93
2022-08-20T15:02:50.913Z,4.50
2022-08-20T15:05:18.757Z,3.50
2022-08-20T15:07:51.789Z,5.80
2022-08-20T15:10:25.698Z,3.73
2022-08-20T15:12:53.364Z,4.13
2022-08-20T15:15:22.381Z,5.10
2022-08-20T15:17:53.256Z,4.03
2022-08-20T15:20:23.648Z,4.50
2022-08-20T15:22:52.669Z,5.33
2022-08-20T15:25:23.326Z,3.77
2022-08-20T15:27:51.553Z,4.07
2022-08-20T15:30:21.615Z,4.37
2022-08-20T15:32:54.587Z,6.00
2022-08-20T15:35:25.713Z,10.17
2022-08-20T15:37:56.927Z,7.13
2022-08-20T15:40:28.543Z,5.90
2022-08-20T15:42:56.481Z,4.70
2022-08-20T15:45:24.176Z,5.80
2022-08-20T15:47:55.374Z,3.90
2022-08-20T15:50:45.280Z,4.63
2022-08-20T15:53:18.769Z,4.60
2022-08-20T15:55:56.993Z,5.53
2022-08-20T15:58:32.426Z,3.43
2022-08-20T16:01:24.611Z,4.33
2022-08-20T16:04:10.033Z,6.77
2022-08-20T16:06:37.889Z,11.83
2022-08-20T16:09:28.772Z,7.60
2022-08-20T16:12:03.417Z,4.13
2022-08-20T16:14:37.661Z,7.07
2022-08-20T16:17:09.767Z,5.93
2022-08-20T16:19:51.249Z,4.43
2022-08-20T16:22:20.244Z,6.40
2022-08-20T16:24:49.797Z,4.50
2022-08-20T16:27:28.629Z,4.23
2022-08-20T16:30:02.603Z,6.07
2022-08-20T16:32:38.507Z,5.40
2022-08-20T16:35:26.288Z,3.87
2022-08-20T16:38:03.513Z,6.17
2022-08-20T16:40:39.132Z,4.80
2022-08-20T16:43:09.881Z,6.60
2022-08-20T16:45:50.132Z,5.30
2022-08-20T16:48:19.830Z,5.83
2022-08-20T16:51:02.528Z,4.07
2022-08-20T16:53:30.237Z,8.50
2022-08-20T16:55:59.180Z,3.70
2022-08-20T16:58:26.837Z,7.33
2022-08-20T17:01:07.344Z,6.37
2022-08-20T17:03:39.673Z,3.87
2022-08-20T17:06:17.108Z,6.90
2022-08-20T17:08:49.897Z,3.47
2022-08-20T17:11:25.152Z,5.00
2022-08-20T17:14:07.958Z,3.03
2022-08-20T17:16:40.054Z,6.07
2022-08-20T17:19:11.968Z,3.53
2022-08-20T17:21:40.730Z,4.77
2022-08-20T17:24:16.877Z,3.47
2022-08-20T17:26:49.237Z,4.50
2022-08-20T17:29:20.103Z,5.73
2022-08-20T17:31:51.305Z,3.37
2022-08-20T17:34:21.784Z,7.53
2022-08-20T17:36:53.842Z,3.00
2022-08-20T17:39:24.609Z,4.67
2022-08-20T17:41:56.059Z,5.20
2022-08-20T17:44:29.104Z,3.63
2022-08-20T17:46:58.376Z,3.57
2022-08-20T17:49:35.188Z,3.77
2022-08-20T17:52:10.641Z,3.20
2022-08-20T17:54:42.278Z,10.43
2022-08-20T17:57:14.480Z,3.67
2022-08-20T17:59:59.973Z,5.53
2022-08-20T18:02:30.736Z,5.00
2022-08-20T18:04:58.354Z,6.60
2022-08-20T18:07:31.824Z,3.57
2022-08-20T18:10:03.489Z,6.50
2022-08-20T18:12:40.960Z,5.90
2022-08-20T18:15:13.701Z,2.73
2022-08-20T18:18:01.622Z,3.37
2022-08-20T18:20:49.440Z,4.77
2022-08-20T18:23:21.649Z,8.00
2022-08-20T18:25:53.934Z,3.30
2022-08-20T18:28:27.693Z,4.40
2022-08-20T18:30:58.352Z,4.63
2022-08-20T18:33:29.509Z,6.03
2022-08-20T18:36:11.993Z,5.20
2022-08-20T18:38:42.159Z,5.30
2022-08-20T18:41:14.257Z,5.10
2022-08-20T18:43:44.188Z,5.53
2022-08-20T18:46:23.634Z,12.13
2022-08-20T18:48:54.281Z,4.63
2022-08-20T18:51:30.936Z,7.20
2022-08-20T18:53:59.190Z,5.20
2022-08-20T18:56:40.257Z,4.50
2022-08-20T18:59:15.869Z,5.70
2022-08-20T19:01:48.530Z,3.80
2022-08-20T19:04:29.754Z,5.73
2022-08-20T19:07:01.536Z,6.63
2022-08-20T19:10:01.361Z,4.40
2022-08-20T19:13:03.210Z,5.57
2022-08-20T19:15:34.389Z,8.20
2022-08-20T19:18:07.972Z,6.53
2022-08-20T19:20:38.605Z,6.30
2022-08-20T19:23:08.924Z,4.17
2022-08-20T19:25:41.652Z,4.00
2022-08-20T19:28:20.321Z,6.10
2022-08-20T19:30:50.184Z,8.60
2022-08-20T19:33:27.513Z,4.53
2022-08-20T19:36:08.178Z,8.47
2022-08-20T19:38:36.001Z,4.30
2022-08-20T19:41:11.234Z,5.90
2022-08-20T19:43:43.824Z,3.93
2022-08-20T19:46:16.230Z,5.70
2022-08-20T19:48:53.789Z,5.07
2022-08-20T19:51:28.518Z,5.67
2022-08-20T19:53:56.121Z,4.17
2022-08-20T19:56:25.929Z,4.17
2022-08-20T19:59:01.661Z,7.17
2022-08-20T20:01:30.717Z,4.27
2022-08-20T20:04:00.965Z,4.33
2022-08-20T20:06:29.444Z,8.03
2022-08-20T20:08:59.970Z,11.50
2022-08-20T20:11:33.763Z,5.20
2022-08-20T20:14:03.789Z,3.97
2022-08-20T20:16:33.929Z,10.03
2022-08-20T20:19:25.195Z,5.53
2022-08-20T20:21:52.821Z,6.07
2022-08-20T20:24:25.329Z,5.53
2022-08-20T20:26:53.998Z,4.67
2022-08-20T20:29:28.151Z,12.20
2022-08-20T20:32:00.072Z,7.47
2022-08-20T20:34:30.034Z,12.10
2022-08-20T20:37:09.580Z,4.67
2022-08-20T20:39:41.521Z,7.00
2022-08-20T20:42:12.736Z,6.10
2022-08-20T20:44:43.192Z,5.83
2022-08-20T20:47:21.492Z,10.23
2022-08-20T20:49:52.607Z,4.27
2022-08-20T20:52:23.317Z,8.20
2022-08-20T20:54:52.748Z,4.20
2022-08-20T20:57:37.757Z,6.13
2022-08-20T21:00:11.347Z,5.97
2022-08-20T21:02:40.501Z,4.27
2022-08-20T21:05:08.597Z,4.63
2022-08-20T21:07:44.865Z,4.77
2022-08-20T21:10:19.564Z,5.27
2022-08-20T21:12:50.547Z,6.80
2022-08-20T21:15:21.150Z,7.07
2022-08-20T21:17:50.056Z,6.77
2022-08-20T21:20:17.999Z,10.80
2022-08-20T21:22:45.643Z,6.70
2022-08-20T21:25:13.533Z,6.83
2022-08-20T21:27:44.965Z,9.83
2022-08-20T21:30:13.704Z,6.80
2022-08-20T21:32:41.322Z,7.30
2022-08-20T21:35:11.135Z,5.00
2022-08-20T21:37:38.889Z,8.10
2022-08-20T21:40:08.831Z,11.30
2022-08-20T21:42:37.240Z,6.70
2022-08-20T21:45:07.149Z,6.00
2022-08-20T21:47:34.748Z,7.00
2022-08-20T21:50:02.549Z,5.63
2022-08-20T21:52:31.699Z,6.20
2022-08-20T21:54:59.261Z,6.33
2022-08-20T21:57:29.689Z,7.37
2022-08-20T21:59:58.394Z,7.97
2022-08-20T22:02:27.009Z,9.00
2022-08-20T22:04:54.914Z,7.50
2022-08-20T22:07:22.836Z,13.43
2022-08-20T22:09:51.756Z,12.43
2022-08-20T22:12:22.797Z,10.57
2022-08-20T22:14:50.578Z,6.60
2022-08-20T22:17:18.177Z,9.23
2022-08-20T22:19:45.910Z,10.33
2022-08-20T22:22:14.536Z,7.23
2022-08-20T22:24:42.769Z,10.70
2022-08-20T22:27:11.648Z,8.73
2022-08-20T22:29:39.325Z,7.30
2022-08-20T22:32:07.426Z,6.70
2022-08-20T22:34:36.657Z,8.73
2022-08-20T22:37:05.240Z,7.97
2022-08-20T22:39:33.092Z,6.43
2022-08-20T22:42:00.809Z,6.97
2022-08-20T22:44:29.786Z,9.93
2022-08-20T22:47:02.160Z,7.53
2022-08-20T22:49:33.064Z,7.67
2022-08-20T22:52:01.308Z,7.20
2022-08-20T22:54:30.193Z,7.67
2022-08-20T22:56:57.817Z,8.20
2022-08-20T22:59:25.822Z,7.63
2022-08-20T23:01:55.922Z,8.90
2022-08-20T23:04:27.785Z,9.73
2022-08-20T23:06:56.231Z,7.53
2022-08-20T23:09:23.965Z,7.40
2022-08-20T23:11:52.731Z,6.00
2022-08-20T23:14:20.741Z,6.87
2022-08-20T23:16:52.685Z,8.33
2022-08-20T23:19:23.641Z,10.20
2022-08-20T23:21:52.418Z,7.33
2022-08-20T23:24:20.881Z,8.17
2022-08-20T23:26:53.285Z,7.10
2022-08-20T23:29:25.113Z,6.30
2022-08-20T23:31:54.349Z,7.97
2022-08-20T23:34:23.343Z,8.17
2022-08-20T23:36:52.346Z,8.10
2022-08-20T23:39:20.476Z,11.50
2022-08-20T23:41:48.302Z,9.20
2022-08-20T23:44:25.840Z,8.83
2022-08-20T23:46:56.449Z,8.63
2022-08-20T23:49:25.480Z,13.40
2022-08-20T23:51:53.085Z,7.83
2022-08-20T23:54:20.657Z,8.33
2022-08-20T23:56:48.440Z,7.27
2022-08-20T23:59:16.005Z,8.93
